CheckWX is a tool to help pilots better visualize weather data.  It is not intended as a substitute for an official pre-flight weather briefing.

19:16:17 UTC

PAFA TAF
Fairbanks International Airport
Fairbanks, Alaska, USA
PAFA 191740Z 1918/2024 22003KT P6SM SCT060 BKN080 FM192200 25006KT P6SM VCTS BKN060CB FM200600 28004KT P6SM SCT050 BKN100 FM202200 VRB03KT P6SM VCTS BKN050CB

Jun-19@
18:00 UTC

Jun-19 @ 18:00 UTC

Jun-19@
22:00 UTC

Jun-19 @ 22:00 UTC

PAFA 191740Z 1918/2024 22003KT P6SM SCT060 BKN080
Wind
  • 220° at 3 KTS
Cloud Levels
  • Scattered at 6,000' AGL
  • Broken at 8,000' AGL

Jun-19@
22:00 UTC

Jun-19 @ 22:00 UTC

Jun-20@
06:00 UTC

Jun-20 @ 06:00 UTC

FM192200 25006KT P6SM VCTS BKN060CB

From

From Standard forecast or significant change

Wind
  • 250° at 6 KTS
Conditions
Area Thunderstorm
Cloud Levels
  • Broken at 6,000' AGL

Jun-20@
06:00 UTC

Jun-20 @ 06:00 UTC

Jun-20@
22:00 UTC

Jun-20 @ 22:00 UTC

FM200600 28004KT P6SM SCT050 BKN100

From

From Standard forecast or significant change

Wind
  • 280° at 4 KTS
Cloud Levels
  • Scattered at 5,000' AGL
  • Broken at 10,000' AGL

Jun-20@
22:00 UTC

Jun-20 @ 22:00 UTC

Jun-21@
00:00 UTC

Jun-21 @ 00:00 UTC

FM202200 VRB03KT P6SM VCTS BKN050CB

From

From Standard forecast or significant change

Wind
  • Variable at 3 KTS
Conditions
Area Thunderstorm
Cloud Levels
  • Broken at 5,000' AGL